createdAt,value
2019-04-05T00:00:35.736Z,100090.70
2019-04-05T00:01:38.013Z,100088.49
2019-04-05T00:02:40.285Z,100092.41
2019-04-05T00:03:42.522Z,100088.49
2019-04-05T00:04:44.786Z,100089.80
2019-04-05T00:05:47.009Z,100094.62
2019-04-05T00:06:49.244Z,100096.70
2019-04-05T00:07:51.514Z,100102.44
2019-04-05T00:08:53.768Z,100102.44
2019-04-05T00:09:55.968Z,100108.97
2019-04-05T00:10:58.193Z,100107.66
2019-04-05T00:12:00.544Z,100103.75
2019-04-05T00:13:02.893Z,100097.10
2019-04-05T00:14:05.134Z,100095.41
2019-04-05T00:15:15.227Z,100100.23
2019-04-05T00:16:11.244Z,100108.05
2019-04-05T00:17:13.494Z,100109.36
2019-04-05T00:18:15.744Z,100109.36
2019-04-05T00:19:18.087Z,100114.97
2019-04-05T00:20:20.341Z,100119.79
2019-04-05T00:21:24.435Z,100117.18
2019-04-05T00:22:26.607Z,100116.66
2019-04-05T00:23:28.885Z,100117.70
2019-04-05T00:24:31.128Z,100116.27
2019-04-05T00:25:33.378Z,100118.87
2019-04-05T00:26:35.616Z,100121.09
2019-04-05T00:27:37.850Z,100113.27
2019-04-05T00:28:40.099Z,100112.75
2019-04-05T00:29:42.358Z,100119.79
2019-04-05T00:30:44.591Z,100113.66
2019-04-05T00:31:46.920Z,100123.31
2019-04-05T00:32:49.157Z,100124.09
2019-04-05T00:33:51.524Z,100123.70
2019-04-05T00:34:53.748Z,100122.40
2019-04-05T00:35:55.990Z,100118.48
2019-04-05T00:36:58.222Z,100120.19
2019-04-05T00:38:00.558Z,100114.97
2019-04-05T00:39:02.831Z,100116.66
2019-04-05T00:40:05.128Z,100111.45
2019-04-05T00:41:07.380Z,100115.88
2019-04-05T00:42:09.616Z,100114.05
2019-04-05T00:43:11.867Z,100120.19
2019-04-05T00:44:14.130Z,100123.70
2019-04-05T00:45:27.631Z,100135.05
2019-04-05T00:46:20.257Z,100129.70
2019-04-05T00:47:22.483Z,100132.31
2019-04-05T00:48:24.720Z,100136.23
2019-04-05T00:49:26.980Z,100135.84
2019-04-05T00:50:29.314Z,100139.23
2019-04-05T00:51:31.532Z,100134.53
2019-04-05T00:52:33.768Z,100133.74
2019-04-05T00:53:36.011Z,100129.70
2019-04-05T00:54:38.271Z,100133.62
2019-04-05T00:55:40.503Z,100128.28
2019-04-05T00:56:42.738Z,100132.19
2019-04-05T00:57:44.983Z,100134.02
2019-04-05T00:58:47.214Z,100133.62
2019-04-05T00:59:49.547Z,100134.02
2019-04-05T01:00:51.796Z,100132.31
2019-04-05T01:01:54.021Z,100134.02
2019-04-05T01:02:58.075Z,100130.09
2019-04-05T01:04:00.328Z,100134.92
2019-04-05T01:05:02.560Z,100131.41
2019-04-05T01:06:04.797Z,100130.09
2019-04-05T01:07:07.120Z,100131.41
2019-04-05T01:08:09.351Z,100135.31
2019-04-05T01:09:11.589Z,100131.41
2019-04-05T01:10:13.808Z,100140.92
2019-04-05T01:11:16.042Z,100136.63
2019-04-05T01:12:18.293Z,100132.70
2019-04-05T01:13:20.581Z,100133.10
2019-04-05T01:14:22.851Z,100133.49
2019-04-05T01:15:25.213Z,100133.49
2019-04-05T01:16:27.488Z,100136.10
2019-04-05T01:17:29.803Z,100137.41
2019-04-05T01:18:32.074Z,100131.80
2019-04-05T01:19:34.310Z,100134.02
2019-04-05T01:20:36.709Z,100134.80
2019-04-05T01:21:38.993Z,100132.19
2019-04-05T01:22:41.235Z,100126.58
2019-04-05T01:23:43.499Z,100128.80
2019-04-05T01:24:45.825Z,100119.15
2019-04-05T01:25:48.087Z,100129.58
2019-04-05T01:26:50.331Z,100132.19
2019-04-05T01:27:52.574Z,100125.16
2019-04-05T01:28:54.813Z,100126.58
2019-04-05T01:29:57.073Z,100125.28
2019-04-05T01:30:59.303Z,100128.67
2019-04-05T01:32:01.667Z,100118.23
2019-04-05T01:33:03.891Z,100129.19
2019-04-05T01:34:06.135Z,100123.06
2019-04-05T01:35:08.364Z,100131.01
2019-04-05T01:36:10.596Z,100126.58
2019-04-05T01:37:12.845Z,100126.58
2019-04-05T01:38:15.070Z,100129.97
2019-04-05T01:39:17.301Z,100125.67
2019-04-05T01:40:19.685Z,100130.88
2019-04-05T01:41:21.927Z,100133.10
2019-04-05T01:42:24.155Z,100129.19
2019-04-05T01:43:26.386Z,100128.28
2019-04-05T01:44:28.621Z,100130.49
2019-04-05T01:45:30.871Z,100125.67
2019-04-05T01:46:33.103Z,100129.97
2019-04-05T01:47:35.335Z,100132.58
2019-04-05T01:48:37.569Z,100143.53
2019-04-05T01:49:39.815Z,100149.14
2019-04-05T01:50:42.040Z,100141.71
2019-04-05T01:51:44.278Z,100145.11
2019-04-05T01:52:46.510Z,100143.02
2019-04-05T01:53:48.733Z,100148.23
2019-04-05T01:54:51.001Z,100137.80
2019-04-05T01:55:53.234Z,100146.14
2019-04-05T01:56:55.521Z,100145.63
2019-04-05T01:57:57.779Z,100154.75
2019-04-05T01:59:00.028Z,100148.63
2019-04-05T02:00:02.314Z,100151.36
2019-04-05T02:01:04.531Z,100146.93
2019-04-05T02:02:06.777Z,100141.19
2019-04-05T02:03:09.001Z,100139.89
2019-04-05T02:04:11.235Z,100135.19
2019-04-05T02:05:13.561Z,100142.10
2019-04-05T02:06:15.805Z,100142.63
2019-04-05T02:07:18.035Z,100144.32
2019-04-05T02:08:20.281Z,100138.58
2019-04-05T02:09:22.529Z,100146.02
2019-04-05T02:10:24.789Z,100145.11
2019-04-05T02:11:27.047Z,100142.50
2019-04-05T02:12:29.303Z,100146.02
2019-04-05T02:13:31.534Z,100148.11
2019-04-05T02:14:33.763Z,100143.02
2019-04-05T02:15:36.011Z,100137.67
2019-04-05T02:16:38.249Z,100136.89
2019-04-05T02:17:40.499Z,100138.58
2019-04-05T02:18:42.719Z,100133.37
2019-04-05T02:19:44.987Z,100135.98
2019-04-05T02:20:47.231Z,100126.33
2019-04-05T02:21:49.457Z,100130.77
2019-04-05T02:22:51.699Z,100131.67
2019-04-05T02:23:54.007Z,100129.85
2019-04-05T02:24:56.190Z,100129.85
2019-04-05T02:25:59.571Z,100128.16
2019-04-05T02:27:01.744Z,100129.45
2019-04-05T02:28:03.982Z,100128.16
2019-04-05T02:29:06.199Z,100126.72
2019-04-05T02:30:08.459Z,100131.28
2019-04-05T02:31:10.698Z,100125.55
2019-04-05T02:32:12.929Z,100119.02
2019-04-05T02:33:15.163Z,100117.72
2019-04-05T02:34:17.384Z,100120.72
2019-04-05T02:35:19.632Z,100114.20
2019-04-05T02:36:21.915Z,100121.63
2019-04-05T02:37:24.148Z,100115.90
2019-04-05T02:38:26.383Z,100113.29
2019-04-05T02:39:28.616Z,100115.90
2019-04-05T02:40:30.899Z,100119.81
2019-04-05T02:41:33.130Z,100122.03
2019-04-05T02:42:35.369Z,100127.76
2019-04-05T02:43:37.610Z,100121.11
2019-04-05T02:44:39.856Z,100125.94
2019-04-05T02:45:42.112Z,100123.33
2019-04-05T02:46:44.343Z,100115.90
2019-04-05T02:47:46.591Z,100114.98
2019-04-05T02:48:48.811Z,100115.50
2019-04-05T02:49:51.014Z,100121.51
2019-04-05T02:50:53.278Z,100125.94
2019-04-05T02:51:55.513Z,100127.63
2019-04-05T02:52:57.707Z,100120.20
2019-04-05T02:53:59.906Z,100124.11
2019-04-05T02:55:02.133Z,100119.81
2019-04-05T02:56:04.392Z,100115.90
2019-04-05T02:57:06.584Z,100122.81
2019-04-05T02:58:08.848Z,100125.42
2019-04-05T02:59:11.142Z,100121.51
2019-04-05T03:00:13.344Z,100125.94
2019-04-05T03:01:15.588Z,100122.30
2019-04-05T03:02:17.794Z,100125.03
2019-04-05T03:03:21.153Z,100121.91
2019-04-05T03:04:23.299Z,100124.11
2019-04-05T03:05:27.430Z,100128.03
2019-04-05T03:06:29.439Z,100115.38
2019-04-05T03:07:31.652Z,100122.30
2019-04-05T03:08:33.862Z,100117.98
2019-04-05T03:09:36.121Z,100128.03
2019-04-05T03:10:38.366Z,100124.91
2019-04-05T03:11:40.605Z,100119.30
2019-04-05T03:12:42.809Z,100125.81
2019-04-05T03:13:45.032Z,100123.59
2019-04-05T03:14:47.264Z,100123.59
2019-04-05T03:15:49.463Z,100123.98
2019-04-05T03:16:51.701Z,100125.81
2019-04-05T03:17:55.470Z,100125.81
2019-04-05T03:18:57.674Z,100124.91
2019-04-05T03:19:59.886Z,100125.42
2019-04-05T03:21:02.103Z,100125.81
2019-04-05T03:22:04.320Z,100129.33
2019-04-05T03:23:06.550Z,100124.51
2019-04-05T03:24:08.756Z,100127.51
2019-04-05T03:25:10.970Z,100129.33
2019-04-05T03:26:13.179Z,100126.59
2019-04-05T03:27:15.426Z,100129.73
2019-04-05T03:28:17.638Z,100128.81
2019-04-05T03:29:19.879Z,100122.69
2019-04-05T03:30:22.088Z,100124.51
2019-04-05T03:31:25.816Z,100129.20
2019-04-05T03:32:28.333Z,100128.81
2019-04-05T03:33:30.545Z,100126.59
2019-04-05T03:34:32.742Z,100127.51
2019-04-05T03:35:34.949Z,100128.81
2019-04-05T03:36:37.143Z,100126.20
2019-04-05T03:37:39.364Z,100129.20
2019-04-05T03:38:41.579Z,100124.38
2019-04-05T03:39:43.797Z,100126.59
2019-04-05T03:40:45.999Z,100129.20
2019-04-05T03:41:48.263Z,100127.91
2019-04-05T03:42:50.583Z,100130.52
2019-04-05T03:43:52.802Z,100134.42
2019-04-05T03:44:55.027Z,100132.21
2019-04-05T03:45:57.246Z,100130.52
2019-04-05T03:46:59.453Z,100133.13
2019-04-05T03:48:01.673Z,100138.33
2019-04-05T03:49:03.863Z,100137.03
2019-04-05T03:50:06.081Z,100138.33
2019-04-05T03:51:08.288Z,100138.73
2019-04-05T03:52:10.505Z,100140.03
2019-04-05T03:53:12.720Z,100140.94
2019-04-05T03:54:14.935Z,100134.81
2019-04-05T03:55:17.153Z,100137.42
2019-04-05T03:56:19.394Z,100135.34
2019-04-05T03:57:21.590Z,100129.99
2019-04-05T03:58:23.815Z,100130.91
2019-04-05T03:59:26.045Z,100137.03
2019-04-05T04:00:28.262Z,100138.33
2019-04-05T04:01:30.481Z,100137.42
2019-04-05T04:02:32.661Z,100137.81
2019-04-05T04:03:34.898Z,100142.13
2019-04-05T04:04:37.105Z,100141.73
2019-04-05T04:05:39.321Z,100143.42
2019-04-05T04:06:41.537Z,100150.30
2019-04-05T04:07:43.751Z,100158.29
2019-04-05T04:08:45.979Z,100159.08
2019-04-05T04:09:50.942Z,100153.08
2019-04-05T04:10:53.147Z,100150.30
2019-04-05T04:11:55.354Z,100145.64
2019-04-05T04:12:57.603Z,100148.64
2019-04-05T04:13:59.775Z,100150.47
2019-04-05T04:15:14.006Z,100138.20
2019-04-05T04:16:16.887Z,100137.81
2019-04-05T04:17:19.117Z,100137.03
2019-04-05T04:18:21.336Z,100131.30
2019-04-05T04:19:23.533Z,100134.30
2019-04-05T04:20:25.749Z,100128.53
2019-04-05T04:21:27.959Z,100127.78
2019-04-05T04:22:30.178Z,100131.30
2019-04-05T04:23:32.401Z,100128.14
2019-04-05T04:24:34.609Z,100129.08
2019-04-05T04:25:36.754Z,100128.14
2019-04-05T04:26:38.975Z,100126.47
2019-04-05T04:27:41.196Z,100131.69
2019-04-05T04:28:43.428Z,100135.96
2019-04-05T04:29:45.625Z,100138.20
2019-04-05T04:30:47.821Z,100139.88
2019-04-05T04:31:50.032Z,100132.44
2019-04-05T04:32:52.243Z,100136.91
2019-04-05T04:33:54.460Z,100132.44
2019-04-05T04:34:56.685Z,100133.35
2019-04-05T04:35:58.924Z,100137.27
2019-04-05T04:37:01.159Z,100138.56
2019-04-05T04:38:03.366Z,100133.75
2019-04-05T04:39:05.648Z,100133.35
2019-04-05T04:40:07.891Z,100133.35
2019-04-05T04:41:10.108Z,100136.36
2019-04-05T04:42:12.312Z,100130.23
2019-04-05T04:43:14.527Z,100135.05
2019-04-05T04:44:16.764Z,100129.44
2019-04-05T04:45:18.976Z,100133.75
2019-04-05T04:46:21.170Z,100134.66
2019-04-05T04:47:26.915Z,100140.27
2019-04-05T04:48:27.252Z,100137.66
2019-04-05T04:49:29.487Z,100137.66
2019-04-05T04:50:31.755Z,100147.18
2019-04-05T04:51:33.948Z,100141.96
2019-04-05T04:52:36.170Z,100140.66
2019-04-05T04:53:38.373Z,100142.88
2019-04-05T04:54:40.616Z,100137.66
2019-04-05T04:55:42.825Z,100138.56
2019-04-05T04:56:45.096Z,100135.44
2019-04-05T04:57:47.246Z,100134.14
2019-04-05T04:58:49.406Z,100140.27
2019-04-05T04:59:51.648Z,100135.44
2019-04-05T05:00:53.906Z,100135.44
2019-04-05T05:01:56.144Z,100131.53
2019-04-05T05:02:58.362Z,100134.14
2019-04-05T05:04:00.568Z,100141.96
2019-04-05T05:05:02.811Z,100141.05
2019-04-05T05:06:05.018Z,100136.75
2019-04-05T05:07:07.232Z,100145.87
2019-04-05T05:08:09.479Z,100142.88
2019-04-05T05:09:11.676Z,100144.57
2019-04-05T05:10:13.916Z,100145.87
2019-04-05T05:11:16.132Z,100146.27
2019-04-05T05:12:18.352Z,100150.18
2019-04-05T05:13:20.560Z,100148.48
2019-04-05T05:14:22.793Z,100150.18
2019-04-05T05:15:27.221Z,100151.48
2019-04-05T05:16:28.894Z,100149.27
2019-04-05T05:17:38.377Z,100144.57
2019-04-05T05:18:34.966Z,100145.87
2019-04-05T05:19:37.162Z,100152.91
2019-04-05T05:20:39.413Z,100149.16
2019-04-05T05:21:41.610Z,100151.50
2019-04-05T05:22:43.832Z,100147.72
2019-04-05T05:23:46.030Z,100150.33
2019-04-05T05:24:48.260Z,100151.63
2019-04-05T05:25:50.498Z,100149.53
2019-04-05T05:26:52.718Z,100155.66
2019-04-05T05:27:54.943Z,100153.58
2019-04-05T05:28:57.161Z,100149.53
2019-04-05T05:29:59.362Z,100148.23
2019-04-05T05:31:01.604Z,100147.45
2019-04-05T05:32:03.820Z,100150.05
2019-04-05T05:33:06.120Z,100145.23
2019-04-05T05:34:08.332Z,100146.14
2019-04-05T05:35:10.527Z,100147.05
2019-04-05T05:36:12.781Z,100147.45
2019-04-05T05:37:14.980Z,100152.66
2019-04-05T05:38:17.184Z,100158.79
2019-04-05T05:39:19.399Z,100150.18
2019-04-05T05:40:34.257Z,100150.05
2019-04-05T05:41:25.502Z,100155.39
2019-04-05T05:42:27.733Z,100154.48
2019-04-05T05:43:29.943Z,100159.31
2019-04-05T05:44:32.165Z,100159.31
2019-04-05T05:45:34.373Z,100168.95
2019-04-05T05:46:36.625Z,100171.56
2019-04-05T05:47:51.262Z,100172.87
2019-04-05T05:48:42.681Z,100171.56
2019-04-05T05:49:44.891Z,100176.39
2019-04-05T05:50:48.802Z,100171.95
2019-04-05T05:51:51.044Z,100167.66
2019-04-05T05:52:53.244Z,100170.66
2019-04-05T05:53:55.447Z,100166.34
2019-04-05T05:54:59.373Z,100171.56
2019-04-05T05:56:01.610Z,100166.34
2019-04-05T05:57:03.821Z,100169.47
2019-04-05T05:58:06.020Z,100169.87
2019-04-05T05:59:08.225Z,100174.69
2019-04-05T06:00:10.847Z,100181.21
2019-04-05T06:01:13.067Z,100175.08
2019-04-05T06:02:15.295Z,100176.91
2019-04-05T06:03:17.497Z,100172.60
2019-04-05T06:04:19.697Z,100177.42
2019-04-05T06:05:21.935Z,100178.21
2019-04-05T06:06:24.187Z,100176.67
2019-04-05T06:07:26.388Z,100178.34
2019-04-05T06:08:29.344Z,100179.13
2019-04-05T06:09:31.737Z,100177.42
2019-04-05T06:10:33.939Z,100174.81
2019-04-05T06:11:36.165Z,100179.64
2019-04-05T06:12:38.399Z,100180.03
2019-04-05T06:13:40.599Z,100181.73
2019-04-05T06:14:42.824Z,100187.62
2019-04-05T06:15:45.044Z,100188.02
2019-04-05T06:16:47.265Z,100181.50
2019-04-05T06:17:49.476Z,100185.80
2019-04-05T06:18:51.695Z,100192.33
2019-04-05T06:19:53.946Z,100199.36
2019-04-05T06:20:56.159Z,100200.15
2019-04-05T06:21:58.412Z,100203.67
2019-04-05T06:23:00.627Z,100208.50
2019-04-05T06:24:05.231Z,100213.32
2019-04-05T06:25:06.686Z,100216.71
2019-04-05T06:26:08.911Z,100216.71
2019-04-05T06:27:11.127Z,100216.16
2019-04-05T06:28:13.343Z,100232.49
2019-04-05T06:29:15.555Z,100236.41
2019-04-05T06:30:17.770Z,100229.36
2019-04-05T06:31:20.336Z,100240.71
2019-04-05T06:32:23.213Z,100235.09
2019-04-05T06:33:31.282Z,100234.19
2019-04-05T06:34:29.253Z,100240.31
2019-04-05T06:35:31.469Z,100239.02
2019-04-05T06:36:33.669Z,100237.34
2019-04-05T06:37:35.924Z,100238.66
2019-04-05T06:38:38.137Z,100239.02
2019-04-05T06:39:40.339Z,100240.48
2019-04-05T06:40:42.541Z,100242.17
2019-04-05T06:41:44.765Z,100243.48
2019-04-05T06:42:47.015Z,100239.96
2019-04-05T06:43:49.228Z,100240.87
2019-04-05T06:44:51.434Z,100240.48
2019-04-05T06:45:53.780Z,100241.39
2019-04-05T06:46:56.122Z,100235.66
2019-04-05T06:47:58.379Z,100246.09
2019-04-05T06:49:00.591Z,100244.91
2019-04-05T06:50:02.803Z,100241.39
2019-04-05T06:51:05.023Z,100236.69
2019-04-05T06:52:07.248Z,100235.66
2019-04-05T06:53:09.491Z,100237.48
2019-04-05T06:54:11.698Z,100237.48
2019-04-05T06:55:13.911Z,100242.82
2019-04-05T06:56:16.130Z,100242.30
2019-04-05T06:57:18.356Z,100245.43
2019-04-05T06:58:28.554Z,100241.13
2019-04-05T06:59:24.481Z,100242.82
2019-04-05T07:00:26.686Z,100248.04
2019-04-05T07:01:28.882Z,100244.25
2019-04-05T07:02:31.202Z,100243.34
2019-04-05T07:03:33.509Z,100238.52
2019-04-05T07:04:35.859Z,100238.52
2019-04-05T07:05:39.139Z,100234.73
2019-04-05T07:06:41.394Z,100229.91
2019-04-05T07:07:43.594Z,100222.47
2019-04-05T07:08:53.679Z,100218.16
2019-04-05T07:09:49.665Z,100217.77
2019-04-05T07:10:51.875Z,100225.20
2019-04-05T07:11:54.092Z,100229.52
2019-04-05T07:12:56.393Z,100232.64
2019-04-05T07:13:58.783Z,100232.52
2019-04-05T07:15:00.994Z,100233.03
2019-04-05T07:16:03.206Z,100239.03
2019-04-05T07:17:05.428Z,100239.95
2019-04-05T07:18:07.650Z,100238.64
2019-04-05T07:19:09.900Z,100242.95
2019-04-05T07:20:12.103Z,100243.47
2019-04-05T07:21:17.047Z,100239.55
2019-04-05T07:22:32.163Z,100235.64
2019-04-05T07:23:22.085Z,100233.42
2019-04-05T07:24:24.376Z,100231.73
2019-04-05T07:25:29.201Z,100234.34
2019-04-05T07:26:30.531Z,100241.89
2019-04-05T07:27:32.764Z,100240.08
2019-04-05T07:28:34.982Z,100243.59
2019-04-05T07:29:37.211Z,100240.98
2019-04-05T07:30:39.418Z,100238.89
2019-04-05T07:31:41.638Z,100239.29
2019-04-05T07:32:43.846Z,100239.80
2019-04-05T07:33:46.064Z,100239.29
2019-04-05T07:34:48.313Z,100238.89
2019-04-05T07:35:50.514Z,100237.72
2019-04-05T07:36:52.740Z,100237.59
2019-04-05T07:37:54.968Z,100238.89
2019-04-05T07:38:57.179Z,100233.05
2019-04-05T07:39:59.406Z,100237.88
2019-04-05T07:41:01.615Z,100236.57
2019-04-05T07:42:03.828Z,100241.92
2019-04-05T07:43:06.076Z,100242.44
2019-04-05T07:44:08.309Z,100235.12
2019-04-05T07:45:10.555Z,100233.70
2019-04-05T07:46:12.778Z,100242.05
2019-04-05T07:47:15.002Z,100242.05
2019-04-05T07:48:17.239Z,100242.95
2019-04-05T07:49:19.454Z,100236.83
2019-04-05T07:50:21.739Z,100246.99
2019-04-05T07:51:23.940Z,100246.99
2019-04-05T07:52:26.157Z,100253.39
2019-04-05T07:53:28.375Z,100247.78
2019-04-05T07:54:30.594Z,100249.48
2019-04-05T07:55:32.847Z,100250.52
2019-04-05T07:56:37.899Z,100258.47
2019-04-05T07:57:40.085Z,100256.25
2019-04-05T07:58:42.292Z,100268.00
2019-04-05T07:59:44.517Z,100271.13
2019-04-05T08:00:46.761Z,100269.70
2019-04-05T08:01:48.976Z,100281.17
2019-04-05T08:02:51.189Z,100278.56
2019-04-05T08:03:53.416Z,100283.26
2019-04-05T08:04:55.644Z,100287.69
2019-04-05T08:05:57.885Z,100299.44
2019-04-05T08:07:00.089Z,100306.09
2019-04-05T08:08:02.367Z,100308.70
2019-04-05T08:09:05.790Z,100311.83
2019-04-05T08:10:08.015Z,100316.13
2019-04-05T08:11:10.241Z,100305.30
2019-04-05T08:12:12.467Z,100298.39
2019-04-05T08:13:14.668Z,100293.70
2019-04-05T08:14:18.190Z,100290.72
2019-04-05T08:15:20.611Z,100287.42
2019-04-05T08:16:22.814Z,100287.30
2019-04-05T08:17:25.046Z,100282.34
2019-04-05T08:18:27.262Z,100278.83
2019-04-05T08:19:29.489Z,100283.66
2019-04-05T08:20:31.695Z,100278.44
2019-04-05T08:21:33.992Z,100281.83
2019-04-05T08:22:36.141Z,100282.73
2019-04-05T08:23:38.343Z,100275.16
2019-04-05T08:24:40.549Z,100283.78
2019-04-05T08:25:42.780Z,100286.78
2019-04-05T08:26:45.050Z,100280.91
2019-04-05T08:27:47.273Z,100291.87
2019-04-05T08:28:49.493Z,100287.83
2019-04-05T08:29:51.709Z,100295.66
2019-04-05T08:30:53.923Z,100294.75
2019-04-05T08:31:56.146Z,100299.58
2019-04-05T08:32:58.351Z,100303.48
2019-04-05T08:34:00.562Z,100306.62
2019-04-05T08:35:02.788Z,100306.22
2019-04-05T08:36:05.030Z,100314.58
2019-04-05T08:37:07.265Z,100323.83
2019-04-05T08:38:09.473Z,100308.05
2019-04-05T08:39:11.677Z,100307.14
2019-04-05T08:40:13.881Z,100305.44
2019-04-05T08:41:16.090Z,100305.05
2019-04-05T08:42:18.342Z,100302.83
2019-04-05T08:43:20.550Z,100302.95
2019-04-05T08:44:22.767Z,100302.95
2019-04-05T08:45:25.033Z,100304.27
2019-04-05T08:46:27.230Z,100300.87
2019-04-05T08:47:29.490Z,100296.04
2019-04-05T08:48:31.695Z,100294.22
2019-04-05T08:49:33.899Z,100296.04
2019-04-05T08:50:36.124Z,100294.34
2019-04-05T08:51:38.398Z,100294.73
2019-04-05T08:52:40.625Z,100295.25
2019-04-05T08:53:42.835Z,100294.73
2019-04-05T08:54:45.053Z,100296.95
2019-04-05T08:55:47.301Z,100299.17
2019-04-05T08:56:49.672Z,100293.03
2019-04-05T08:57:51.910Z,100295.65
2019-04-05T08:58:54.116Z,100296.72
2019-04-05T08:59:56.333Z,100294.86
2019-04-05T09:00:58.541Z,100294.86
2019-04-05T09:02:00.743Z,100296.17
2019-04-05T09:03:02.943Z,100287.59
2019-04-05T09:04:05.129Z,100290.20
2019-04-05T09:05:07.343Z,100285.34
2019-04-05T09:06:09.555Z,100284.59
2019-04-05T09:07:11.782Z,100291.11
2019-04-05T09:08:14.030Z,100285.50
2019-04-05T09:09:16.258Z,100289.02
2019-04-05T09:10:18.483Z,100289.80
2019-04-05T09:11:20.695Z,100286.80
2019-04-05T09:12:22.915Z,100287.20
2019-04-05T09:13:25.156Z,100284.42
2019-04-05T09:14:27.475Z,100288.11
2019-04-05T09:15:29.700Z,100285.34
2019-04-05T09:16:31.909Z,100284.59
2019-04-05T09:17:34.151Z,100290.72
2019-04-05T09:18:36.393Z,100294.86
2019-04-05T09:19:38.620Z,100290.43
2019-04-05T09:20:40.817Z,100291.86
2019-04-05T09:21:43.109Z,100297.08
2019-04-05T09:22:45.315Z,100305.46
2019-04-05T09:23:47.552Z,100293.72
2019-04-05T09:24:49.874Z,100293.55
2019-04-05T09:25:53.008Z,100292.80
2019-04-05T09:26:55.222Z,100296.72
2019-04-05T09:27:57.438Z,100293.72
2019-04-05T09:28:59.672Z,100296.84
2019-04-05T09:30:01.896Z,100296.84
2019-04-05T09:31:04.103Z,100292.94
2019-04-05T09:32:06.316Z,100295.94
2019-04-05T09:33:08.533Z,100297.24
2019-04-05T09:34:10.786Z,100285.63
2019-04-05T09:35:13.663Z,100290.33
2019-04-05T09:36:15.873Z,100294.63
2019-04-05T09:37:18.184Z,100293.45
2019-04-05T09:38:20.401Z,100299.58
2019-04-05T09:39:22.705Z,100294.76
2019-04-05T09:40:24.916Z,100292.27
2019-04-05T09:41:27.145Z,100289.66
2019-04-05T09:42:29.370Z,100287.45
2019-04-05T09:43:31.635Z,100284.84
2019-04-05T09:44:33.938Z,100283.92
2019-04-05T09:45:36.286Z,100289.14
2019-04-05T09:46:46.472Z,100277.01
2019-04-05T09:47:42.400Z,100282.62
2019-04-05T09:48:44.711Z,100282.62
2019-04-05T09:49:46.971Z,100280.14
2019-04-05T09:50:50.468Z,100282.62
2019-04-05T09:51:52.703Z,100286.14
2019-04-05T09:52:54.912Z,100286.14
2019-04-05T09:53:57.146Z,100283.14
2019-04-05T09:54:59.412Z,100289.27
2019-04-05T09:56:01.640Z,100289.27
2019-04-05T09:57:03.868Z,100292.27
2019-04-05T09:58:06.366Z,100286.14
2019-04-05T09:59:08.575Z,100295.80
2019-04-05T10:00:14.289Z,100302.84
2019-04-05T10:01:16.488Z,100307.55
2019-04-05T10:02:18.792Z,100302.84
2019-04-05T10:03:21.002Z,100305.45
2019-04-05T10:04:23.210Z,100311.19
2019-04-05T10:05:25.499Z,100316.02
2019-04-05T10:06:27.722Z,100317.32
2019-04-05T10:07:29.939Z,100318.63
2019-04-05T10:08:32.160Z,100319.54
2019-04-05T10:09:34.363Z,100319.14
2019-04-05T10:10:36.640Z,100327.89
2019-04-05T10:11:39.862Z,100326.97
2019-04-05T10:12:42.080Z,100322.67
2019-04-05T10:13:44.290Z,100311.31
2019-04-05T10:14:46.504Z,100314.84
2019-04-05T10:15:49.465Z,100311.70
2019-04-05T10:17:10.578Z,100305.06
2019-04-05T10:18:12.784Z,100303.75
2019-04-05T10:19:15.107Z,100305.84
2019-04-05T10:20:17.344Z,100304.14
2019-04-05T10:21:19.583Z,100302.84
2019-04-05T10:22:21.794Z,100303.62
2019-04-05T10:23:24.020Z,100308.06
2019-04-05T10:24:26.227Z,100310.67
2019-04-05T10:25:28.427Z,100311.06
2019-04-05T10:26:30.665Z,100312.37
2019-04-05T10:27:32.896Z,100311.45
2019-04-05T10:28:35.104Z,100315.77
2019-04-05T10:29:37.303Z,100318.37
2019-04-05T10:30:39.501Z,100316.55
2019-04-05T10:31:41.926Z,100325.81
2019-04-05T10:32:46.097Z,100320.98
2019-04-05T10:33:48.280Z,100330.12
2019-04-05T10:34:50.522Z,100324.38
2019-04-05T10:35:52.736Z,100327.11
2019-04-05T10:36:54.964Z,100321.38
2019-04-05T10:37:58.518Z,100323.20
2019-04-05T10:39:00.785Z,100324.50
2019-04-05T10:40:03.025Z,100321.89
2019-04-05T10:41:05.229Z,100316.67
2019-04-05T10:42:07.577Z,100317.06
2019-04-05T10:43:09.840Z,100322.68
2019-04-05T10:44:13.408Z,100320.07
2019-04-05T10:45:15.708Z,100329.20
2019-04-05T10:46:18.031Z,100335.73
2019-04-05T10:47:20.237Z,100330.38
2019-04-05T10:48:22.454Z,100329.20
2019-04-05T10:49:24.820Z,100329.59
2019-04-05T10:50:27.037Z,100337.03
2019-04-05T10:51:29.252Z,100337.42
2019-04-05T10:52:31.493Z,100328.69
2019-04-05T10:53:33.693Z,100332.20
2019-04-05T10:54:35.914Z,100329.59
2019-04-05T10:55:38.126Z,100331.69
2019-04-05T10:56:40.322Z,100334.42
2019-04-05T10:57:42.599Z,100335.21
2019-04-05T10:58:44.794Z,100339.13
2019-04-05T10:59:47.019Z,100341.86
2019-04-05T11:00:49.263Z,100343.16
2019-04-05T11:01:51.634Z,100339.64
2019-04-05T11:02:53.860Z,100346.17
2019-04-05T11:03:56.077Z,100340.42
2019-04-05T11:04:58.279Z,100346.17
2019-04-05T11:06:02.192Z,100345.26
2019-04-05T11:07:04.393Z,100345.26
2019-04-05T11:08:06.615Z,100341.22
2019-04-05T11:09:08.826Z,100346.56
2019-04-05T11:10:11.028Z,100347.47
2019-04-05T11:11:13.241Z,100351.78
2019-04-05T11:12:15.466Z,100349.17
2019-04-05T11:13:17.760Z,100353.48
2019-04-05T11:14:20.083Z,100363.52
2019-04-05T11:15:22.296Z,100369.66
2019-04-05T11:16:24.529Z,100363.91
2019-04-05T11:17:26.746Z,100366.13
2019-04-05T11:18:30.650Z,100364.83
2019-04-05T11:19:36.218Z,100366.13
2019-04-05T11:20:36.692Z,100367.05
2019-04-05T11:21:38.913Z,100370.05
2019-04-05T11:22:41.112Z,100371.35
2019-04-05T11:23:43.321Z,100367.44
2019-04-05T11:24:45.536Z,100360.39
2019-04-05T11:25:47.751Z,100366.53
2019-04-05T11:26:49.952Z,100364.83
2019-04-05T11:27:52.197Z,100362.61
2019-04-05T11:28:54.372Z,100363.13
2019-04-05T11:29:57.991Z,100360.78
2019-04-05T11:31:00.363Z,100359.61
2019-04-05T11:32:02.561Z,100357.12
2019-04-05T11:33:04.775Z,100357.52
2019-04-05T11:34:06.970Z,100352.82
2019-04-05T11:35:09.212Z,100351.12
2019-04-05T11:36:11.644Z,100344.60
2019-04-05T11:37:16.872Z,100350.34
2019-04-05T11:38:19.179Z,100350.34
2019-04-05T11:39:21.387Z,100355.56
2019-04-05T11:40:24.231Z,100353.73
2019-04-05T11:41:26.698Z,100352.69
2019-04-05T11:42:28.919Z,100352.30
2019-04-05T11:43:31.453Z,100347.07
2019-04-05T11:44:33.782Z,100346.28
2019-04-05T11:45:36.101Z,100342.89
2019-04-05T11:46:38.311Z,100341.59
2019-04-05T11:47:40.584Z,100342.66
2019-04-05T11:48:42.773Z,100343.80
2019-04-05T11:49:44.981Z,100345.50
2019-04-05T11:50:47.202Z,100341.98
2019-04-05T11:51:49.395Z,100352.03